createdAt,value
2018-10-09T00:00:38.335Z,0
2018-10-09T00:01:38.188Z,0
2018-10-09T00:02:37.929Z,0
2018-10-09T00:03:37.920Z,0
2018-10-09T00:04:38.466Z,0
2018-10-09T00:05:38.191Z,0
2018-10-09T00:06:38.437Z,0
2018-10-09T00:07:38.196Z,0
2018-10-09T00:08:37.917Z,0
2018-10-09T00:09:38.456Z,0
2018-10-09T00:10:38.463Z,0
2018-10-09T00:11:38.170Z,0
2018-10-09T00:12:38.952Z,0
2018-10-09T00:13:38.167Z,0
2018-10-09T00:14:38.403Z,0
2018-10-09T00:15:38.422Z,0
2018-10-09T00:16:38.142Z,0
2018-10-09T00:17:38.165Z,0
2018-10-09T00:18:38.149Z,0
2018-10-09T00:19:38.136Z,0
2018-10-09T00:20:37.876Z,0
2018-10-09T00:21:38.134Z,0
2018-10-09T00:22:38.121Z,0
2018-10-09T00:23:38.130Z,0
2018-10-09T00:24:38.161Z,0
2018-10-09T00:25:38.121Z,0
2018-10-09T00:26:38.391Z,0
2018-10-09T00:27:38.429Z,0
2018-10-09T00:28:38.120Z,0
2018-10-09T00:29:38.154Z,0
2018-10-09T00:30:38.099Z,0
2018-10-09T00:31:38.371Z,0
2018-10-09T00:32:42.362Z,0
2018-10-09T00:33:38.091Z,0
2018-10-09T00:34:38.340Z,0
2018-10-09T00:35:38.082Z,0
2018-10-09T00:36:37.880Z,0
2018-10-09T00:37:37.579Z,0
2018-10-09T00:38:38.344Z,0
2018-10-09T00:39:37.844Z,0
2018-10-09T00:40:38.106Z,0
2018-10-09T00:41:38.341Z,0
2018-10-09T00:42:37.558Z,0
2018-10-09T00:43:38.328Z,0
2018-10-09T00:44:38.330Z,0
2018-10-09T00:45:38.326Z,0
2018-10-09T00:46:38.068Z,0
2018-10-09T00:47:38.314Z,0
2018-10-09T00:48:38.306Z,0
2018-10-09T00:49:38.298Z,0
2018-10-09T00:50:38.308Z,0
2018-10-09T00:51:37.785Z,0
2018-10-09T00:52:38.303Z,0
2018-10-09T00:53:38.043Z,0
2018-10-09T00:54:38.279Z,0
2018-10-09T00:55:37.517Z,0
2018-10-09T00:56:38.050Z,0
2018-10-09T00:57:38.290Z,0
2018-10-09T00:58:38.296Z,0
2018-10-09T00:59:38.275Z,0
2018-10-09T01:00:38.317Z,0
2018-10-09T01:01:37.756Z,0
2018-10-09T01:02:38.274Z,0
2018-10-09T01:03:38.256Z,0
2018-10-09T01:04:38.015Z,0
2018-10-09T01:05:38.252Z,0
2018-10-09T01:06:37.741Z,0
2018-10-09T01:07:37.767Z,0
2018-10-09T01:08:38.234Z,0
2018-10-09T01:09:38.252Z,0
2018-10-09T01:10:37.730Z,0
2018-10-09T01:11:38.228Z,0
2018-10-09T01:12:37.963Z,0
2018-10-09T01:13:37.966Z,0
2018-10-09T01:14:37.965Z,0
2018-10-09T01:15:37.691Z,0
2018-10-09T01:16:37.971Z,0
2018-10-09T01:17:37.709Z,0
2018-10-09T01:18:37.943Z,0
2018-10-09T01:19:37.731Z,0
2018-10-09T01:20:37.956Z,0
2018-10-09T01:21:37.428Z,0
2018-10-09T01:22:37.956Z,0
2018-10-09T01:23:38.187Z,0
2018-10-09T01:24:38.207Z,0
2018-10-09T01:25:37.925Z,0
2018-10-09T01:26:37.676Z,0
2018-10-09T01:27:37.663Z,0
2018-10-09T01:28:37.947Z,0
2018-10-09T01:29:38.178Z,0
2018-10-09T01:30:37.649Z,0
2018-10-09T01:31:37.421Z,0
2018-10-09T01:32:37.937Z,0
2018-10-09T01:33:38.203Z,0
2018-10-09T01:34:38.177Z,0
2018-10-09T01:35:37.381Z,0
2018-10-09T01:36:37.658Z,0
2018-10-09T01:37:37.904Z,0
2018-10-09T01:38:37.880Z,0
2018-10-09T01:39:38.148Z,0
2018-10-09T01:40:38.160Z,0
2018-10-09T01:41:37.401Z,0
2018-10-09T01:42:38.119Z,0
2018-10-09T01:43:37.928Z,0
2018-10-09T01:44:37.361Z,0
2018-10-09T01:45:38.118Z,0
2018-10-09T01:46:38.118Z,0
2018-10-09T01:47:37.879Z,0
2018-10-09T01:48:37.595Z,0
2018-10-09T01:49:38.112Z,0
2018-10-09T01:50:37.592Z,0
2018-10-09T01:51:38.104Z,0
2018-10-09T01:52:37.838Z,0
2018-10-09T01:53:37.848Z,0
2018-10-09T01:54:37.587Z,0
2018-10-09T01:55:37.817Z,0
2018-10-09T01:56:37.321Z,0
2018-10-09T01:57:38.080Z,0
2018-10-09T01:58:37.562Z,0
2018-10-09T01:59:37.842Z,0
2018-10-09T02:00:37.557Z,0
2018-10-09T02:01:37.828Z,0
2018-10-09T02:02:37.544Z,0
2018-10-09T02:03:37.810Z,0
2018-10-09T02:04:38.085Z,0
2018-10-09T02:05:38.063Z,0
2018-10-09T02:06:37.525Z,0
2018-10-09T02:07:37.538Z,0
2018-10-09T02:08:37.788Z,0
2018-10-09T02:09:37.285Z,0
2018-10-09T02:10:38.043Z,0
2018-10-09T02:11:37.510Z,0
2018-10-09T02:12:38.037Z,0
2018-10-09T02:13:38.029Z,0
2018-10-09T02:14:38.038Z,0
2018-10-09T02:15:37.512Z,0
2018-10-09T02:16:37.757Z,0
2018-10-09T02:17:37.761Z,0
2018-10-09T02:18:37.508Z,0
2018-10-09T02:19:37.778Z,0
2018-10-09T02:20:37.748Z,0
2018-10-09T02:21:38.018Z,0
2018-10-09T02:22:37.225Z,0
2018-10-09T02:23:37.757Z,0
2018-10-09T02:24:37.785Z,0
2018-10-09T02:25:37.993Z,0
2018-10-09T02:26:37.981Z,0
2018-10-09T02:27:37.474Z,0
2018-10-09T02:28:37.463Z,0
2018-10-09T02:29:37.984Z,0
2018-10-09T02:30:37.722Z,0
2018-10-09T02:31:37.699Z,0
2018-10-09T02:32:37.445Z,0
2018-10-09T02:33:38.372Z,0
2018-10-09T02:34:37.711Z,0
2018-10-09T02:35:37.685Z,0
2018-10-09T02:36:37.955Z,0
2018-10-09T02:37:37.716Z,0
2018-10-09T02:38:37.444Z,0
2018-10-09T02:39:37.704Z,0
2018-10-09T02:40:37.706Z,0
2018-10-09T02:41:37.674Z,0
2018-10-09T02:42:37.924Z,0
2018-10-09T02:43:37.423Z,0
2018-10-09T02:44:37.668Z,0
2018-10-09T02:45:37.660Z,0
2018-10-09T02:46:37.934Z,0
2018-10-09T02:47:37.941Z,0
2018-10-09T02:48:37.654Z,0
2018-10-09T02:49:37.425Z,0
2018-10-09T02:50:37.656Z,0
2018-10-09T02:51:37.146Z,0
2018-10-09T02:52:37.628Z,0
2018-10-09T02:53:37.636Z,0
2018-10-09T02:54:37.620Z,0
2018-10-09T02:55:37.609Z,0
2018-10-09T02:56:37.893Z,0
2018-10-09T02:57:37.130Z,0
2018-10-09T02:58:37.879Z,0
2018-10-09T02:59:37.867Z,0
2018-10-09T03:00:37.866Z,0
2018-10-09T03:01:37.593Z,0
2018-10-09T03:02:37.342Z,0
2018-10-09T03:03:37.579Z,0
2018-10-09T03:04:37.590Z,0
2018-10-09T03:05:37.320Z,0
2018-10-09T03:06:37.317Z,0
2018-10-09T03:07:37.313Z,0
2018-10-09T03:08:37.903Z,0
2018-10-09T03:09:37.832Z,0
2018-10-09T03:10:37.817Z,0
2018-10-09T03:11:37.842Z,0
2018-10-09T03:12:37.817Z,0
2018-10-09T03:13:37.284Z,0
2018-10-09T03:14:37.550Z,0
2018-10-09T03:15:37.540Z,0
2018-10-09T03:16:37.778Z,0
2018-10-09T03:17:37.521Z,0
2018-10-09T03:18:37.538Z,0
2018-10-09T03:19:37.279Z,0
2018-10-09T03:20:37.041Z,0
2018-10-09T03:21:37.520Z,0
2018-10-09T03:22:37.519Z,0
2018-10-09T03:23:37.506Z,0
2018-10-09T03:24:37.794Z,0
2018-10-09T03:25:37.776Z,0
2018-10-09T03:26:37.499Z,0
2018-10-09T03:27:37.764Z,0
2018-10-09T03:28:37.473Z,0
2018-10-09T03:29:37.475Z,0
2018-10-09T03:30:37.239Z,0
2018-10-09T03:31:37.733Z,0
2018-10-09T03:32:37.481Z,0
2018-10-09T03:33:38.262Z,0
2018-10-09T03:34:37.748Z,0
2018-10-09T03:35:37.754Z,0
2018-10-09T03:36:37.724Z,0
2018-10-09T03:37:37.455Z,0
2018-10-09T03:38:37.723Z,0
2018-10-09T03:39:37.201Z,0
2018-10-09T03:40:37.455Z,0
2018-10-09T03:41:37.688Z,0
2018-10-09T03:42:37.180Z,0
2018-10-09T03:43:37.699Z,0
2018-10-09T03:44:37.434Z,0
2018-10-09T03:45:37.693Z,0
2018-10-09T03:46:37.429Z,0
2018-10-09T03:47:37.670Z,0
2018-10-09T03:48:37.200Z,0
2018-10-09T03:49:37.667Z,0
2018-10-09T03:50:37.648Z,0
2018-10-09T03:51:37.690Z,0
2018-10-09T03:52:37.146Z,0
2018-10-09T03:53:37.649Z,0
2018-10-09T03:54:37.664Z,0
2018-10-09T03:55:37.130Z,0
2018-10-09T03:56:37.642Z,0
2018-10-09T03:57:37.128Z,0
2018-10-09T03:58:37.124Z,0
2018-10-09T03:59:37.393Z,0
2018-10-09T04:00:37.621Z,0
2018-10-09T04:01:37.650Z,0
2018-10-09T04:02:36.850Z,0
2018-10-09T04:03:38.716Z,0
2018-10-09T04:04:37.416Z,0
2018-10-09T04:05:37.335Z,0
2018-10-09T04:06:37.091Z,0
2018-10-09T04:07:36.813Z,0
2018-10-09T04:08:37.358Z,0
2018-10-09T04:09:37.686Z,0
2018-10-09T04:10:37.325Z,0
2018-10-09T04:11:37.607Z,0
2018-10-09T04:12:37.440Z,0
2018-10-09T04:13:37.314Z,0
2018-10-09T04:14:37.576Z,0
2018-10-09T04:15:37.568Z,0
2018-10-09T04:16:37.313Z,0
2018-10-09T04:17:37.049Z,0
2018-10-09T04:18:37.046Z,0
2018-10-09T04:19:37.996Z,0
2018-10-09T04:20:37.304Z,0
2018-10-09T04:21:37.308Z,0
2018-10-09T04:22:37.052Z,0
2018-10-09T04:23:37.602Z,0
2018-10-09T04:24:37.058Z,0
2018-10-09T04:25:37.019Z,0
2018-10-09T04:26:37.546Z,0
2018-10-09T04:27:37.264Z,0
2018-10-09T04:28:37.049Z,0
2018-10-09T04:29:37.546Z,0
2018-10-09T04:30:36.742Z,0
2018-10-09T04:31:37.258Z,0
2018-10-09T04:32:37.568Z,0
2018-10-09T04:33:37.494Z,0
2018-10-09T04:34:36.988Z,0
2018-10-09T04:35:37.126Z,0
2018-10-09T04:36:36.985Z,0
2018-10-09T04:37:36.982Z,0
2018-10-09T04:38:36.722Z,0
2018-10-09T04:39:37.316Z,0
2018-10-09T04:40:37.227Z,0
2018-10-09T04:41:36.988Z,0
2018-10-09T04:42:37.467Z,0
2018-10-09T04:43:36.944Z,0
2018-10-09T04:44:36.964Z,0
2018-10-09T04:45:37.087Z,0
2018-10-09T04:46:36.703Z,0
2018-10-09T04:47:36.932Z,0
2018-10-09T04:48:37.207Z,0
2018-10-09T04:49:37.448Z,0
2018-10-09T04:50:36.926Z,0
2018-10-09T04:51:37.448Z,0
2018-10-09T04:52:36.930Z,0
2018-10-09T04:53:36.948Z,0
2018-10-09T04:54:37.440Z,0
2018-10-09T04:55:36.923Z,0
2018-10-09T04:56:37.481Z,0
2018-10-09T04:57:37.156Z,0
2018-10-09T04:58:36.903Z,0
2018-10-09T04:59:36.908Z,0
2018-10-09T05:00:37.631Z,0
2018-10-09T05:01:37.408Z,0
2018-10-09T05:02:37.155Z,0
2018-10-09T05:03:39.005Z,0
2018-10-09T05:04:37.132Z,4
2018-10-09T05:05:36.879Z,4
2018-10-09T05:06:37.146Z,0
2018-10-09T05:07:37.372Z,0
2018-10-09T05:08:36.906Z,4
2018-10-09T05:09:37.141Z,4
2018-10-09T05:10:37.131Z,4
2018-10-09T05:11:37.127Z,4
2018-10-09T05:12:36.859Z,4
2018-10-09T05:13:37.128Z,4
2018-10-09T05:14:36.911Z,8
2018-10-09T05:15:37.091Z,12
2018-10-09T05:16:37.353Z,12
2018-10-09T05:17:37.466Z,16
2018-10-09T05:18:36.885Z,16
2018-10-09T05:19:37.367Z,16
2018-10-09T05:20:37.157Z,24
2018-10-09T05:21:37.077Z,24
2018-10-09T05:22:36.826Z,28
2018-10-09T05:23:36.830Z,32
2018-10-09T05:24:36.842Z,36
2018-10-09T05:25:36.825Z,44
2018-10-09T05:26:36.865Z,48
2018-10-09T05:27:37.114Z,56
2018-10-09T05:28:36.828Z,64
2018-10-09T05:29:37.054Z,68
2018-10-09T05:30:37.315Z,76
2018-10-09T05:31:37.601Z,76
2018-10-09T05:32:37.053Z,84
2018-10-09T05:33:40.757Z,96
2018-10-09T05:34:36.801Z,104
2018-10-09T05:35:36.559Z,112
2018-10-09T05:36:37.315Z,116
2018-10-09T05:37:37.483Z,128
2018-10-09T05:38:36.783Z,132
2018-10-09T05:39:37.041Z,140
2018-10-09T05:40:36.802Z,148
2018-10-09T05:41:36.789Z,156
2018-10-09T05:42:37.277Z,168
2018-10-09T05:43:37.030Z,180
2018-10-09T05:44:37.097Z,192
2018-10-09T05:45:37.270Z,204
2018-10-09T05:46:36.761Z,220
2018-10-09T05:47:36.796Z,228
2018-10-09T05:48:37.275Z,240
2018-10-09T05:49:36.775Z,256
2018-10-09T05:50:37.286Z,272
2018-10-09T05:51:36.775Z,292
2018-10-09T05:52:37.267Z,308
2018-10-09T05:53:36.758Z,328
2018-10-09T05:54:37.260Z,340
2018-10-09T05:55:37.041Z,348
2018-10-09T05:56:37.239Z,352
2018-10-09T05:57:36.745Z,360
2018-10-09T05:58:36.977Z,360
2018-10-09T05:59:37.240Z,360
2018-10-09T06:00:36.978Z,368
2018-10-09T06:01:36.712Z,388
2018-10-09T06:02:36.968Z,404
2018-10-09T06:03:36.706Z,424
2018-10-09T06:04:38.562Z,444
2018-10-09T06:05:36.712Z,468
2018-10-09T06:06:37.222Z,496
2018-10-09T06:07:37.222Z,528
2018-10-09T06:08:37.227Z,564
2018-10-09T06:09:36.940Z,596
2018-10-09T06:10:36.691Z,632
2018-10-09T06:11:36.945Z,672
2018-10-09T06:12:36.727Z,716
2018-10-09T06:13:37.183Z,764
2018-10-09T06:14:36.936Z,824
2018-10-09T06:15:37.567Z,904
2018-10-09T06:16:36.938Z,1000
2018-10-09T06:17:37.190Z,1112
2018-10-09T06:18:37.192Z,1244
2018-10-09T06:19:36.403Z,1368
2018-10-09T06:20:36.665Z,1480
2018-10-09T06:21:36.940Z,1572
2018-10-09T06:22:37.225Z,1628
2018-10-09T06:23:36.648Z,1668
2018-10-09T06:24:39.607Z,1692
2018-10-09T06:25:36.652Z,1732
2018-10-09T06:26:37.150Z,1788
2018-10-09T06:27:36.918Z,1868
2018-10-09T06:28:37.298Z,1952
2018-10-09T06:29:37.142Z,2036
2018-10-09T06:30:36.878Z,2092
2018-10-09T06:31:37.140Z,2132
2018-10-09T06:32:36.886Z,2168
2018-10-09T06:33:36.688Z,2212
2018-10-09T06:34:37.957Z,2256
2018-10-09T06:35:36.893Z,2292
2018-10-09T06:36:37.120Z,2320
2018-10-09T06:37:36.869Z,2332
2018-10-09T06:38:37.196Z,2348
2018-10-09T06:39:36.872Z,2368
2018-10-09T06:40:37.094Z,2400
2018-10-09T06:41:36.931Z,2436
2018-10-09T06:42:37.264Z,2456
2018-10-09T06:43:36.619Z,2460
2018-10-09T06:44:37.175Z,2464
2018-10-09T06:45:37.130Z,2468
2018-10-09T06:46:36.863Z,2496
2018-10-09T06:47:37.411Z,2544
2018-10-09T06:48:37.096Z,2600
2018-10-09T06:49:37.070Z,2652
2018-10-09T06:50:37.071Z,2708
2018-10-09T06:51:36.579Z,2764
2018-10-09T06:52:36.568Z,2788
2018-10-09T06:53:37.123Z,2804
2018-10-09T06:54:37.632Z,2852
2018-10-09T06:55:37.103Z,2884
2018-10-09T06:56:36.846Z,2924
2018-10-09T06:57:36.832Z,2980
2018-10-09T06:58:36.577Z,3076
2018-10-09T06:59:36.849Z,3196
2018-10-09T07:00:36.612Z,3292
2018-10-09T07:01:36.579Z,3304
2018-10-09T07:02:36.580Z,3192
2018-10-09T07:03:37.087Z,3012
2018-10-09T07:04:38.423Z,2816
2018-10-09T07:05:36.839Z,2692
2018-10-09T07:06:37.136Z,2648
2018-10-09T07:07:37.078Z,2640
2018-10-09T07:08:37.087Z,2660
2018-10-09T07:09:36.571Z,2692
2018-10-09T07:10:36.824Z,2748
2018-10-09T07:11:37.082Z,2800
2018-10-09T07:12:36.555Z,2816
2018-10-09T07:13:36.801Z,2856
2018-10-09T07:14:37.064Z,2908
2018-10-09T07:15:36.792Z,2960
2018-10-09T07:16:37.045Z,3012
2018-10-09T07:17:36.560Z,3020
2018-10-09T07:18:36.826Z,3016
2018-10-09T07:19:36.793Z,3068
2018-10-09T07:20:36.799Z,3076
2018-10-09T07:21:36.616Z,3032
2018-10-09T07:22:36.794Z,2964
2018-10-09T07:23:36.809Z,2892
2018-10-09T07:24:36.549Z,2880
2018-10-09T07:25:36.536Z,2852
2018-10-09T07:26:36.817Z,2936
2018-10-09T07:27:37.054Z,3012
2018-10-09T07:28:36.281Z,3008
2018-10-09T07:29:37.056Z,3008
2018-10-09T07:30:36.834Z,3080
2018-10-09T07:31:36.799Z,3152
2018-10-09T07:32:37.060Z,3192
2018-10-09T07:33:37.106Z,3204
2018-10-09T07:34:36.777Z,3220
2018-10-09T07:35:37.055Z,3220
2018-10-09T07:36:36.527Z,3228
2018-10-09T07:37:37.091Z,3224
2018-10-09T07:38:36.792Z,3216
2018-10-09T07:39:36.766Z,3228
2018-10-09T07:40:36.505Z,3236
2018-10-09T07:41:37.053Z,3220
2018-10-09T07:42:36.541Z,3144
2018-10-09T07:43:36.799Z,3076
2018-10-09T07:44:36.832Z,3064
2018-10-09T07:45:37.038Z,3076
2018-10-09T07:46:37.024Z,3132
2018-10-09T07:47:36.496Z,3188
2018-10-09T07:48:36.528Z,3280
2018-10-09T07:49:37.053Z,3352
2018-10-09T07:50:37.070Z,3488
2018-10-09T07:51:37.014Z,3656
2018-10-09T07:52:36.498Z,3840
2018-10-09T07:53:36.769Z,3956
2018-10-09T07:54:36.759Z,4024
2018-10-09T07:55:36.749Z,4000
2018-10-09T07:56:36.489Z,3980
2018-10-09T07:57:37.024Z,3964
2018-10-09T07:58:36.918Z,3924
2018-10-09T07:59:36.768Z,3756
2018-10-09T08:00:37.025Z,3632
2018-10-09T08:01:36.750Z,3676
2018-10-09T08:02:36.763Z,3816
2018-10-09T08:03:36.764Z,3944
2018-10-09T08:04:36.556Z,4040
2018-10-09T08:05:36.493Z,4064
2018-10-09T08:06:36.743Z,4048
2018-10-09T08:07:36.784Z,4164
2018-10-09T08:08:36.483Z,4452
2018-10-09T08:09:36.751Z,4752
2018-10-09T08:10:37.488Z,4968
2018-10-09T08:11:37.034Z,4924
2018-10-09T08:12:36.775Z,4764
2018-10-09T08:13:36.502Z,4680
2018-10-09T08:14:36.491Z,4600
2018-10-09T08:15:36.494Z,4540
2018-10-09T08:16:36.495Z,4536
2018-10-09T08:17:36.759Z,4604
2018-10-09T08:18:36.490Z,4756
2018-10-09T08:19:36.498Z,5020
2018-10-09T08:20:37.017Z,5256
2018-10-09T08:21:37.014Z,5460
2018-10-09T08:22:37.530Z,5956
2018-10-09T08:23:36.756Z,6248
2018-10-09T08:24:36.777Z,6344
2018-10-09T08:25:36.497Z,6352
2018-10-09T08:26:36.758Z,6340
2018-10-09T08:27:36.747Z,6288
2018-10-09T08:28:37.023Z,6324
2018-10-09T08:29:36.745Z,6548
2018-10-09T08:30:36.533Z,6600
2018-10-09T08:31:36.742Z,6772
2018-10-09T08:32:36.749Z,6876
2018-10-09T08:33:36.499Z,6888
2018-10-09T08:34:37.486Z,6948
2018-10-09T08:35:36.751Z,6984
2018-10-09T08:36:36.812Z,7036
2018-10-09T08:37:36.769Z,7152
2018-10-09T08:38:36.789Z,7192
2018-10-09T08:39:36.760Z,7152
2018-10-09T08:40:36.699Z,7140
2018-10-09T08:41:36.485Z,7156
2018-10-09T08:42:36.751Z,7232
2018-10-09T08:43:36.752Z,7244
2018-10-09T08:44:36.751Z,7252
2018-10-09T08:45:36.754Z,7224
2018-10-09T08:46:36.762Z,7236
2018-10-09T08:47:36.811Z,7228
2018-10-09T08:48:36.740Z,7272
2018-10-09T08:49:36.816Z,7312
2018-10-09T08:50:36.740Z,7324
2018-10-09T08:51:36.756Z,7320
2018-10-09T08:52:36.530Z,7300
2018-10-09T08:53:37.029Z,7312
2018-10-09T08:54:36.514Z,7348
2018-10-09T08:55:36.760Z,7352
2018-10-09T08:56:36.774Z,7260
2018-10-09T08:57:36.736Z,7256
2018-10-09T08:58:36.781Z,7208
2018-10-09T08:59:36.829Z,7248
2018-10-09T09:00:36.513Z,7252
2018-10-09T09:01:36.764Z,7208
2018-10-09T09:02:36.793Z,7240
2018-10-09T09:03:37.025Z,7284
2018-10-09T09:04:36.788Z,7252
2018-10-09T09:05:38.415Z,7304
2018-10-09T09:06:36.238Z,7240
2018-10-09T09:07:36.744Z,7208
2018-10-09T09:08:37.022Z,7184
2018-10-09T09:09:36.871Z,7224
2018-10-09T09:10:36.792Z,7244
2018-10-09T09:11:36.512Z,7012
2018-10-09T09:12:36.772Z,7160
2018-10-09T09:13:36.791Z,7176
2018-10-09T09:14:36.531Z,7264
2018-10-09T09:15:37.151Z,7280
2018-10-09T09:16:36.771Z,7296
2018-10-09T09:17:36.757Z,7324
2018-10-09T09:18:37.022Z,7316
2018-10-09T09:19:36.774Z,7308
2018-10-09T09:20:36.762Z,7332
2018-10-09T09:21:36.515Z,7328
2018-10-09T09:22:36.770Z,7288
2018-10-09T09:23:36.518Z,7272
2018-10-09T09:24:36.795Z,7288
2018-10-09T09:25:36.520Z,7308
2018-10-09T09:26:37.536Z,7272
2018-10-09T09:27:37.475Z,7332
2018-10-09T09:28:36.525Z,7356
2018-10-09T09:29:36.522Z,7372
2018-10-09T09:30:37.045Z,7264
2018-10-09T09:31:36.529Z,7176
2018-10-09T09:32:36.525Z,7180
2018-10-09T09:33:36.553Z,7248
2018-10-09T09:34:36.539Z,7328
2018-10-09T09:35:38.655Z,7328
2018-10-09T09:36:36.542Z,7288
2018-10-09T09:37:36.820Z,7236
2018-10-09T09:38:37.069Z,7292
2018-10-09T09:39:37.382Z,7332
2018-10-09T09:40:36.545Z,7352
2018-10-09T09:41:37.051Z,7328
2018-10-09T09:42:37.063Z,7336
2018-10-09T09:43:36.552Z,7312
2018-10-09T09:44:36.811Z,7252
2018-10-09T09:45:37.118Z,7336
2018-10-09T09:46:36.576Z,7280
2018-10-09T09:47:36.830Z,7328
2018-10-09T09:48:36.808Z,7276
2018-10-09T09:49:36.823Z,7384
2018-10-09T09:50:36.804Z,7372
2018-10-09T09:51:36.799Z,7196
2018-10-09T09:52:36.840Z,7356
2018-10-09T09:53:36.833Z,7432
2018-10-09T09:54:36.667Z,7468
2018-10-09T09:55:36.647Z,7428
2018-10-09T09:56:36.827Z,7376
2018-10-09T09:57:36.555Z,7400
2018-10-09T09:58:37.182Z,7388
2018-10-09T09:59:36.827Z,7412
2018-10-09T10:00:36.850Z,7456
2018-10-09T10:01:36.850Z,7396
2018-10-09T10:02:36.593Z,7392
2018-10-09T10:03:37.066Z,7376
2018-10-09T10:04:36.844Z,7320
2018-10-09T10:05:37.518Z,7360
2018-10-09T10:06:36.592Z,7412
2018-10-09T10:07:36.858Z,7260
2018-10-09T10:08:37.123Z,7372
2018-10-09T10:09:36.640Z,7456
2018-10-09T10:10:36.594Z,7492
2018-10-09T10:11:37.135Z,7512
2018-10-09T10:12:36.615Z,7484
2018-10-09T10:13:37.129Z,7480
2018-10-09T10:14:37.099Z,7456
2018-10-09T10:15:36.965Z,7480
2018-10-09T10:16:37.162Z,7436
2018-10-09T10:17:36.593Z,7444
2018-10-09T10:18:36.877Z,7452
2018-10-09T10:19:36.887Z,7496
2018-10-09T10:20:36.879Z,7512
2018-10-09T10:21:37.440Z,7524
2018-10-09T10:22:36.675Z,7528
2018-10-09T10:23:37.164Z,7508
2018-10-09T10:24:36.909Z,7572
2018-10-09T10:25:36.404Z,7556
2018-10-09T10:26:36.630Z,7576
2018-10-09T10:27:36.894Z,7600
2018-10-09T10:28:37.139Z,7624
2018-10-09T10:29:36.994Z,7620
2018-10-09T10:30:36.643Z,7572
2018-10-09T10:31:36.893Z,7448
2018-10-09T10:32:36.648Z,7184
2018-10-09T10:33:36.922Z,7428
2018-10-09T10:34:36.895Z,7628
2018-10-09T10:35:37.067Z,7744
2018-10-09T10:36:38.156Z,7824
2018-10-09T10:37:37.183Z,7888
2018-10-09T10:38:36.645Z,7952
2018-10-09T10:39:36.894Z,8012
2018-10-09T10:40:36.684Z,8068
2018-10-09T10:41:36.918Z,8148
2018-10-09T10:42:36.974Z,8212
2018-10-09T10:43:36.912Z,8272
2018-10-09T10:44:36.437Z,8336
2018-10-09T10:45:36.673Z,8368
2018-10-09T10:46:36.699Z,8404
2018-10-09T10:47:36.941Z,8420
2018-10-09T10:48:36.944Z,8428
2018-10-09T10:49:37.672Z,8496
2018-10-09T10:50:37.206Z,8572
2018-10-09T10:51:37.003Z,8592
2018-10-09T10:52:36.454Z,8720
2018-10-09T10:53:36.671Z,8728
2018-10-09T10:54:36.695Z,8640
2018-10-09T10:55:37.225Z,8504
2018-10-09T10:56:36.987Z,8264
2018-10-09T10:57:36.724Z,8120
2018-10-09T10:58:36.523Z,8104
2018-10-09T10:59:37.268Z,8312
2018-10-09T11:00:36.989Z,8372
2018-10-09T11:01:37.287Z,8384
2018-10-09T11:02:37.020Z,8248
2018-10-09T11:03:36.966Z,8184
2018-10-09T11:04:36.714Z,8232
2018-10-09T11:05:37.289Z,8288
2018-10-09T11:06:37.037Z,8364
2018-10-09T11:07:37.242Z,8236
2018-10-09T11:08:36.862Z,8044
2018-10-09T11:09:36.743Z,7900
2018-10-09T11:10:37.257Z,7948
2018-10-09T11:11:36.981Z,7820
2018-10-09T11:12:37.253Z,7872
2018-10-09T11:13:36.991Z,7984
2018-10-09T11:14:37.113Z,8104
2018-10-09T11:15:36.991Z,7856
2018-10-09T11:16:36.998Z,7748
2018-10-09T11:17:37.274Z,7496
2018-10-09T11:18:36.739Z,7412
2018-10-09T11:19:36.993Z,7268
2018-10-09T11:20:37.012Z,7068
2018-10-09T11:21:37.643Z,7068
2018-10-09T11:22:37.264Z,6764
2018-10-09T11:23:36.752Z,6668
2018-10-09T11:24:37.031Z,6564
2018-10-09T11:25:36.770Z,6540
2018-10-09T11:26:36.771Z,6772
2018-10-09T11:27:37.028Z,7000
2018-10-09T11:28:37.028Z,6876
2018-10-09T11:29:37.026Z,6952
2018-10-09T11:30:37.026Z,6960
2018-10-09T11:31:36.777Z,7092
2018-10-09T11:32:37.730Z,7232
2018-10-09T11:33:37.316Z,7324
2018-10-09T11:34:37.081Z,7392
2018-10-09T11:35:37.063Z,7536
2018-10-09T11:36:36.777Z,7804
2018-10-09T11:37:36.524Z,7756
2018-10-09T11:38:36.778Z,7992
2018-10-09T11:39:37.051Z,8108
2018-10-09T11:40:37.072Z,7976
2018-10-09T11:41:36.531Z,8260
2018-10-09T11:42:37.140Z,8388
2018-10-09T11:43:36.793Z,8364
2018-10-09T11:44:36.824Z,8100
2018-10-09T11:45:37.321Z,7604
2018-10-09T11:46:37.320Z,7672
2018-10-09T11:47:36.822Z,7692
2018-10-09T11:48:37.103Z,7944
2018-10-09T11:49:36.823Z,7908
2018-10-09T11:50:36.826Z,7876
2018-10-09T11:51:37.080Z,7684
2018-10-09T11:52:37.345Z,7836
2018-10-09T11:53:37.333Z,7740
2018-10-09T11:54:36.833Z,7784
2018-10-09T11:55:36.850Z,7648
2018-10-09T11:56:36.844Z,7472
2018-10-09T11:57:37.078Z,7540
2018-10-09T11:58:37.237Z,7544
2018-10-09T11:59:37.096Z,7556
2018-10-09T12:00:36.856Z,7576
2018-10-09T12:01:37.650Z,7532
2018-10-09T12:02:37.126Z,7644
2018-10-09T12:03:37.375Z,7536
2018-10-09T12:04:37.390Z,7532
2018-10-09T12:05:36.921Z,7608
2018-10-09T12:06:37.368Z,7664
2018-10-09T12:07:36.861Z,7644
2018-10-09T12:08:37.389Z,7628
2018-10-09T12:09:37.390Z,7588
2018-10-09T12:10:37.143Z,7468
2018-10-09T12:11:36.876Z,7536
2018-10-09T12:12:37.137Z,7428
2018-10-09T12:13:37.134Z,7320
2018-10-09T12:14:37.138Z,7284
2018-10-09T12:15:37.443Z,7180
2018-10-09T12:16:37.151Z,7108
2018-10-09T12:17:37.162Z,7172
2018-10-09T12:18:37.161Z,7128
2018-10-09T12:19:37.158Z,7088
2018-10-09T12:20:37.407Z,7016
2018-10-09T12:21:37.208Z,6860
2018-10-09T12:22:37.419Z,6776
2018-10-09T12:23:37.160Z,6604
2018-10-09T12:24:37.170Z,6408
2018-10-09T12:25:37.206Z,6520
2018-10-09T12:26:37.175Z,6592
2018-10-09T12:27:37.198Z,6768
2018-10-09T12:28:37.208Z,6840
2018-10-09T12:29:37.434Z,7040
2018-10-09T12:30:37.458Z,7108
2018-10-09T12:31:37.459Z,6992
2018-10-09T12:32:37.206Z,7148
2018-10-09T12:33:37.208Z,7000
2018-10-09T12:34:36.957Z,6812
2018-10-09T12:35:36.957Z,6636
2018-10-09T12:36:37.208Z,6640
2018-10-09T12:37:37.511Z,6560
2018-10-09T12:38:37.330Z,6496
2018-10-09T12:39:37.492Z,6364
2018-10-09T12:40:37.218Z,6372
2018-10-09T12:41:36.981Z,6216
2018-10-09T12:42:36.971Z,6368
2018-10-09T12:43:37.228Z,6596
2018-10-09T12:44:37.089Z,6552
2018-10-09T12:45:37.239Z,6572
2018-10-09T12:46:36.986Z,6332
2018-10-09T12:47:37.279Z,6376
2018-10-09T12:48:37.034Z,6072
2018-10-09T12:49:37.263Z,6088
2018-10-09T12:50:37.256Z,6164
2018-10-09T12:51:37.645Z,6156
2018-10-09T12:52:37.009Z,6044
2018-10-09T12:53:37.274Z,6128
2018-10-09T12:54:37.345Z,5992
2018-10-09T12:55:37.366Z,5828
2018-10-09T12:56:37.374Z,5512
2018-10-09T12:57:37.040Z,5504
2018-10-09T12:58:38.046Z,5620
2018-10-09T12:59:37.033Z,5696
2018-10-09T13:00:37.026Z,5980
2018-10-09T13:01:37.079Z,6324
2018-10-09T13:02:37.053Z,6276
2018-10-09T13:03:37.566Z,6440
2018-10-09T13:04:37.583Z,6552
2018-10-09T13:05:37.068Z,6616
2018-10-09T13:06:37.311Z,6336
2018-10-09T13:07:37.057Z,6152
2018-10-09T13:08:37.564Z,5980
2018-10-09T13:09:37.654Z,5928
2018-10-09T13:10:37.603Z,5856
2018-10-09T13:11:37.331Z,5932
2018-10-09T13:12:37.066Z,6004
2018-10-09T13:13:37.072Z,6044
2018-10-09T13:14:37.330Z,6120
2018-10-09T13:15:37.343Z,6056
2018-10-09T13:16:37.344Z,6020
2018-10-09T13:17:37.884Z,5816
2018-10-09T13:18:37.079Z,5540
2018-10-09T13:19:37.376Z,5336
2018-10-09T13:20:37.333Z,5220
2018-10-09T13:21:38.685Z,5100
2018-10-09T13:22:39.021Z,4984
2018-10-09T13:23:37.100Z,4988
2018-10-09T13:24:37.104Z,4944
2018-10-09T13:25:37.621Z,4940
2018-10-09T13:26:37.613Z,4948
2018-10-09T13:27:37.657Z,4948
2018-10-09T13:28:37.392Z,4952
2018-10-09T13:29:37.378Z,4912
2018-10-09T13:30:37.657Z,4792
2018-10-09T13:31:37.621Z,4716
2018-10-09T13:32:37.392Z,4632
2018-10-09T13:33:37.120Z,4628
2018-10-09T13:34:37.885Z,4668
2018-10-09T13:35:37.391Z,4680
2018-10-09T13:36:37.649Z,4696
2018-10-09T13:37:37.127Z,4696
2018-10-09T13:38:37.384Z,4884
2018-10-09T13:39:37.447Z,5216
2018-10-09T13:40:37.656Z,5596
2018-10-09T13:41:37.401Z,5664
2018-10-09T13:42:37.665Z,5748
2018-10-09T13:43:37.416Z,5736
2018-10-09T13:44:37.675Z,5756
2018-10-09T13:45:37.660Z,5760
2018-10-09T13:46:37.161Z,5664
2018-10-09T13:47:38.012Z,5736
2018-10-09T13:48:37.672Z,5744
2018-10-09T13:49:37.433Z,5668
2018-10-09T13:50:37.674Z,5624
2018-10-09T13:51:37.427Z,5576
2018-10-09T13:52:37.434Z,5664